Port Stanley, Canada
Current Conditions -  °F | °C
As of 1:00 PM on Saturday 25 Oct 2014 (Local Time) from CYXU Reporting Station
Haze Haze  
Wind Chill: 57°   Ceiling: 1700
Heat Index: 57°   Visibility: 5mi
Dew Point: 50°   Wind: 17mph
Humidity: 77%   Direction: 270°W
Pressure: 29.72"   Gusts: 25mph
Location:  42.67°N, 81.22°W
Report Text: CYXU 251700Z 27015G22KT 5SM BR OVC017 14/10 A2972 RMK SC8 SLP066 DENSITY ALT 1100FT
Loading
Personal Weather Stations






























Interactive Weather Map
Tropical Storm Tracking
New forecast layout! Learn more

10-Day Weather Forecast

Advertisements
Track Severe Weather on mobile